Nanning Wuxu Airport
ZGNN : now visible

Airfield :











YOU CAN JOIN US ON...

 
LOGIN :

Register | Disclaimer

   EN    FR    IT 

 









Legend :    VFR   Marginal VFR   IFR   Intensive IFR   Very Intensive IFR
Visi :
Ceiling :
>= 8 km
>= 3000ft
5 to 8 km
1000 to 3000 ft
1500m to 5 km
500 to 1000 ft
800 to 1500m
200 to 500 ft
< 800m
< 200 ft
Symbols :   Thunderstorms  Fog  Heavy snow  Heavy precipitations  Wind > 20 kt







- Airport Elevation : 421 ft
- IATA code : NNG


ZGNN - Nanning Wuxu

CURRENT METAR :
  • 181800Z 03001MPS CAVOK 27/24 Q1012 NOSIG

EXPIRED METARs :
  • 181700Z VRB01MPS CAVOK 27/24 Q1013 NOSIG
  • 181600Z 00000MPS CAVOK 28/24 Q1013 NOSIG

TAF TAF ZGNN
Valid from the 18 at 18:00 until the 19 at 18:00 UTC


181505Z 1818/1918 06003MPS 5000 BR FEW026 TX34/1907Z TN25/1822Z
TEMPO 1822/1902 1200 FEW007 BKN010
No reported NOTAMs for that airfield.



MET'MAP, your aeronautical weather chart ! - Copyright ORBIFLY December 2007 - Disclaimer

ORBIFLY MET'MAP TEAM :

Programming & Development : Alexandra Zaïnal
Concept & Development : Baudouin d'Aumeries
Co-Development & Prog : Marc-Olivier Méhu
Technical & hardware support : Manuel Goepfert

Contact : metmap@orbifly.com




SOURCES & CREDITS :

   NOAA       Earth
Advisory